Time;durP1;ratioP1;P1;durP2;ratioP2;P2;SDS_P1;SDS_P2;PMS_P1;PMS_P2;Temp;Humidity;BMP_temperature;BMP_pressure;BME280_temperature;BME280_humidity;BME280_pressure;Samples;Min_cycle;Max_cycle;Signal;HPM_P1;HPM_P2
2022/09/15 00:01:40;;;;;;;6.68;3.33;;;18.60;99.90;;;;;;5085957;28;20178;-48
2022/09/15 00:04:07;;;;;;;9.52;3.10;;;18.60;99.90;;;;;;5074092;28;20174;-45
2022/09/15 00:06:34;;;;;;;12.45;2.78;;;18.60;99.90;;;;;;5092719;28;20196;-45
2022/09/15 00:09:01;;;;;;;7.28;3.25;;;18.60;99.90;;;;;;5072719;28;20196;-53
2022/09/15 00:11:30;;;;;;;8.07;2.80;;;18.60;99.90;;;;;;5069587;28;20186;-45
2022/09/15 00:13:59;;;;;;;7.68;2.60;;;18.60;99.90;;;;;;5085794;28;20200;-49
2022/09/15 00:16:26;;;;;;;7.68;2.60;;;18.60;99.90;;;;;;5092295;28;20174;-43
2022/09/15 00:18:52;;;;;;;11.50;2.72;;;18.60;99.90;;;;;;5082419;28;20210;-47
2022/09/15 00:21:23;;;;;;;8.90;2.72;;;18.60;99.90;;;;;;5091959;28;20174;-46
2022/09/15 00:23:50;;;;;;;8.52;2.55;;;18.60;99.90;;;;;;5085819;28;20235;-43
2022/09/15 00:26:18;;;;;;;7.82;2.53;;;18.60;99.90;;;;;;5074619;28;20185;-43
2022/09/15 00:28:45;;;;;;;7.53;1.90;;;18.60;99.90;;;;;;5091103;28;20610;-48
2022/09/15 00:31:14;;;;;;;10.20;2.10;;;18.50;99.90;;;;;;5085982;28;20209;-43
2022/09/15 00:33:40;;;;;;;4.93;1.73;;;18.50;99.90;;;;;;5086791;28;20208;-45
2022/09/15 00:36:11;;;;;;;8.73;1.77;;;18.40;99.90;;;;;;5067199;28;21588;-45
2022/09/15 00:38:38;;;;;;;5.80;1.23;;;18.40;99.90;;;;;;5093007;28;20225;-46
2022/09/15 00:41:06;;;;;;;10.45;1.60;;;18.40;99.90;;;;;;5091243;28;20170;-46
2022/09/15 00:43:56;;;;;;;10.25;1.67;;;18.30;99.90;;;;;;5090380;28;20174;-47
2022/09/15 00:46:33;;;;;;;7.03;1.45;;;18.30;99.90;;;;;;5088595;28;20196;-59
2022/09/15 00:49:21;;;;;;;8.23;1.70;;;18.30;99.90;;;;;;5080248;28;20184;-49
2022/09/15 00:52:02;;;;;;;10.38;1.63;;;18.20;99.90;;;;;;5084830;28;20640;-50
2022/09/15 00:54:34;;;;;;;8.48;1.90;;;18.20;99.90;;;;;;5072250;28;20204;-43
2022/09/15 00:57:06;;;;;;;8.68;1.60;;;18.20;99.90;;;;;;5088821;28;20174;-43
2022/09/15 00:59:33;;;;;;;9.88;1.50;;;18.20;99.90;;;;;;5089594;28;20290;-45
2022/09/15 01:02:12;;;;;;;11.95;1.63;;;18.20;99.90;;;;;;5084580;28;20197;-48
2022/09/15 01:04:38;;;;;;;6.50;1.80;;;18.20;99.90;;;;;;5090817;28;20284;-45
2022/09/15 01:07:06;;;;;;;9.77;1.73;;;18.30;99.90;;;;;;5073292;28;20352;-47
2022/09/15 01:09:52;;;;;;;7.13;1.77;;;18.30;99.90;;;;;;5058756;28;20712;-59
2022/09/15 01:12:20;;;;;;;9.70;1.65;;;18.30;99.70;;;;;;5074964;28;20178;-44
2022/09/15 01:14:45;;;;;;;12.00;1.70;;;18.30;99.70;;;;;;5096076;28;20257;-45
2022/09/15 01:17:14;;;;;;;7.40;1.40;;;18.30;99.60;;;;;;5091897;28;20343;-60
2022/09/15 01:20:22;;;;;;;5.53;1.45;;;18.30;99.50;;;;;;5087955;28;20680;-48
2022/09/15 01:22:57;;;;;;;5.40;1.45;;;18.30;99.50;;;;;;5093803;28;20205;-44
2022/09/15 01:25:32;;;;;;;9.05;1.50;;;18.30;99.40;;;;;;5076998;28;20169;-53
2022/09/15 01:28:22;;;;;;;6.30;1.20;;;18.30;99.30;;;;;;5087419;28;20173;-43
2022/09/15 01:31:06;;;;;;;6.82;1.48;;;18.30;99.20;;;;;;5091070;28;20185;-59
2022/09/15 01:34:01;;;;;;;6.75;1.48;;;18.30;99.00;;;;;;5075853;28;20181;-49
2022/09/15 01:36:43;;;;;;;5.65;1.67;;;18.30;98.90;;;;;;5089971;28;20202;-46
2022/09/15 01:39:21;;;;;;;11.00;1.60;;;18.40;98.80;;;;;;5093436;28;20204;-43
2022/09/15 01:42:03;;;;;;;5.70;1.60;;;18.40;98.60;;;;;;5087046;28;20172;-49
2022/09/15 01:44:36;;;;;;;6.75;1.60;;;18.40;98.50;;;;;;5089050;28;20174;-45
2022/09/15 01:47:06;;;;;;;7.75;1.80;;;18.40;98.30;;;;;;5076694;28;20615;-44
2022/09/15 01:49:51;;;;;;;5.43;2.00;;;18.40;98.20;;;;;;5072749;28;20317;-45
2022/09/15 01:52:20;;;;;;;6.70;1.55;;;18.40;98.10;;;;;;5075408;28;20180;-55
2022/09/15 01:54:50;;;;;;;7.28;1.70;;;18.40;98.00;;;;;;5093467;28;20170;-43
2022/09/15 01:57:20;;;;;;;6.35;1.50;;;18.40;97.90;;;;;;5088787;28;20682;-47
2022/09/15 01:59:50;;;;;;;6.78;1.45;;;18.40;97.80;;;;;;5089862;28;20210;-47
2022/09/15 02:02:32;;;;;;;8.48;1.65;;;18.40;97.60;;;;;;5091221;28;20178;-58
2022/09/15 02:05:10;;;;;;;5.45;1.40;;;18.40;97.50;;;;;;5088658;28;20183;-47
2022/09/15 02:08:00;;;;;;;3.95;1.38;;;18.40;97.40;;;;;;5094252;28;20228;-44
2022/09/15 02:10:32;;;;;;;4.35;1.50;;;18.40;97.30;;;;;;5097296;28;20203;-43
2022/09/15 02:13:15;;;;;;;7.13;1.40;;;18.40;97.30;;;;;;5092212;28;20169;-50
2022/09/15 02:15:47;;;;;;;4.35;1.45;;;18.40;97.10;;;;;;5089214;28;20181;-46
2022/09/15 02:18:21;;;;;;;4.05;1.30;;;18.40;97.10;;;;;;5094210;28;20190;-47
2022/09/15 02:20:59;;;;;;;6.10;1.20;;;18.40;97.00;;;;;;5095057;28;20169;-57
2022/09/15 02:23:34;;;;;;;6.53;1.40;;;18.30;96.60;;;;;;5088331;28;20182;-47
2022/09/15 02:26:12;;;;;;;7.90;1.75;;;18.30;96.60;;;;;;5091031;28;20169;-46
2022/09/15 02:28:40;;;;;;;5.28;1.38;;;18.30;96.40;;;;;;5094413;28;20181;-47
2022/09/15 02:31:10;;;;;;;7.10;1.40;;;18.30;96.40;;;;;;5089646;28;20219;-46
2022/09/15 02:33:43;;;;;;;7.22;1.42;;;18.30;96.20;;;;;;5074557;28;20176;-55
2022/09/15 02:36:14;;;;;;;4.85;1.35;;;18.20;96.00;;;;;;5086681;28;20178;-45
2022/09/15 02:38:46;;;;;;;3.63;1.20;;;18.20;95.90;;;;;;5085890;28;20354;-49
2022/09/15 02:41:13;;;;;;;4.18;1.25;;;18.20;96.10;;;;;;5092438;28;20604;-49
2022/09/15 02:43:48;;;;;;;8.70;1.48;;;18.20;95.60;;;;;;5092438;28;20209;-52
2022/09/15 02:46:17;;;;;;;6.15;1.40;;;18.20;95.60;;;;;;5087019;28;20543;-44
2022/09/15 02:48:42;;;;;;;4.75;1.33;;;18.20;95.60;;;;;;5090767;28;20190;-52
2022/09/15 02:51:08;;;;;;;7.18;1.58;;;18.20;95.40;;;;;;5060385;28;20187;-44
2022/09/15 02:53:35;;;;;;;5.13;1.27;;;18.20;95.40;;;;;;5088027;28;20182;-43
2022/09/15 02:56:05;;;;;;;8.07;1.77;;;18.20;95.40;;;;;;5088440;28;20178;-61
2022/09/15 02:58:32;;;;;;;4.90;1.55;;;18.10;95.30;;;;;;5089513;28;20190;-43
2022/09/15 03:01:01;;;;;;;4.20;1.42;;;18.10;95.40;;;;;;5073069;28;20182;-44
2022/09/15 03:03:27;;;;;;;6.57;1.48;;;18.10;95.40;;;;;;5054810;28;20171;-45
2022/09/15 03:05:52;;;;;;;5.93;1.33;;;18.10;95.50;;;;;;5086953;28;20198;-48
2022/09/15 03:08:18;;;;;;;4.72;0.90;;;18.10;95.50;;;;;;5089990;28;20177;-44
2022/09/15 03:10:44;;;;;;;4.28;1.27;;;18.20;95.60;;;;;;5093177;28;20274;-44
2022/09/15 03:13:10;;;;;;;5.75;1.27;;;18.20;95.80;;;;;;5093472;28;20174;-47
2022/09/15 03:15:36;;;;;;;4.53;1.42;;;18.20;95.90;;;;;;5073075;28;20185;-46
2022/09/15 03:18:02;;;;;;;8.85;1.60;;;18.20;96.00;;;;;;5088269;28;20268;-48
2022/09/15 03:20:29;;;;;;;9.48;1.40;;;18.20;96.10;;;;;;5089495;28;20229;-44
2022/09/15 03:22:55;;;;;;;10.02;1.52;;;18.10;96.20;;;;;;5090758;28;20189;-49
2022/09/15 03:25:20;;;;;;;8.68;1.30;;;18.10;96.40;;;;;;5093174;28;20178;-49
2022/09/15 03:27:46;;;;;;;7.32;1.55;;;18.10;96.50;;;;;;5087590;28;20174;-45
2022/09/15 03:30:13;;;;;;;5.57;1.40;;;18.10;96.40;;;;;;5077725;28;20549;-45
2022/09/15 03:32:39;;;;;;;7.20;1.52;;;18.10;96.40;;;;;;5089447;28;20178;-44
2022/09/15 03:35:05;;;;;;;4.82;1.75;;;18.10;96.40;;;;;;5086895;28;20648;-47
2022/09/15 03:37:32;;;;;;;7.65;1.85;;;18.10;96.40;;;;;;5087938;28;20312;-56
2022/09/15 03:39:58;;;;;;;9.02;1.60;;;18.10;96.50;;;;;;5089013;28;20209;-46
2022/09/15 03:42:23;;;;;;;5.32;1.45;;;18.00;96.50;;;;;;5092291;28;20184;-55
2022/09/15 03:44:49;;;;;;;7.80;1.42;;;18.00;96.50;;;;;;5090138;28;20276;-49
2022/09/15 03:47:15;;;;;;;5.78;1.45;;;18.00;96.60;;;;;;5090422;28;20169;-45
2022/09/15 03:49:41;;;;;;;5.45;1.52;;;18.00;96.60;;;;;;5053190;28;20270;-44
2022/09/15 03:52:06;;;;;;;4.93;1.20;;;17.90;96.60;;;;;;5056134;28;20173;-43
2022/09/15 03:54:34;;;;;;;7.60;1.52;;;17.90;96.60;;;;;;5088371;28;20178;-43
2022/09/15 03:56:59;;;;;;;5.13;1.17;;;17.90;96.60;;;;;;5087372;28;20169;-46
2022/09/15 03:59:25;;;;;;;3.67;1.58;;;17.90;96.60;;;;;;5086447;28;20676;-47
2022/09/15 04:01:51;;;;;;;5.30;1.40;;;17.90;96.60;;;;;;5071796;28;20182;-46
2022/09/15 04:04:17;;;;;;;3.13;1.00;;;17.90;96.60;;;;;;5093437;28;20197;-46
2022/09/15 04:06:43;;;;;;;7.07;1.80;;;17.90;96.60;;;;;;5081893;28;20256;-47
2022/09/15 04:09:09;;;;;;;5.25;1.58;;;17.90;96.60;;;;;;5087633;28;20182;-44
2022/09/15 04:11:36;;;;;;;5.43;1.38;;;17.90;96.50;;;;;;5094758;28;20590;-59
2022/09/15 04:14:02;;;;;;;5.22;1.80;;;17.80;96.40;;;;;;5086344;28;20641;-44
2022/09/15 04:16:28;;;;;;;7.85;2.08;;;17.80;96.40;;;;;;5092022;28;20238;-43
2022/09/15 04:18:54;;;;;;;6.45;1.63;;;17.80;96.40;;;;;;5092170;28;20206;-44
2022/09/15 04:21:23;;;;;;;6.13;1.73;;;17.80;96.30;;;;;;5092238;28;20174;-47
2022/09/15 04:23:49;;;;;;;3.90;1.35;;;17.80;96.20;;;;;;5084250;28;20181;-46
2022/09/15 04:26:30;;;;;;;8.02;1.55;;;17.90;96.10;;;;;;5052106;28;20182;-45
2022/09/15 04:28:56;;;;;;;4.57;1.40;;;17.80;96.10;;;;;;5086211;28;20189;-45
2022/09/15 04:31:22;;;;;;;8.55;1.50;;;17.80;96.00;;;;;;5090836;28;20508;-47
2022/09/15 04:33:51;;;;;;;5.47;1.90;;;17.80;96.00;;;;;;5078435;28;20694;-45
2022/09/15 04:36:21;;;;;;;8.82;2.10;;;17.80;96.30;;;;;;5073683;28;20583;-43
2022/09/15 04:38:47;;;;;;;11.18;2.00;;;17.80;96.50;;;;;;5045597;28;20232;-44
2022/09/15 04:41:13;;;;;;;11.65;2.03;;;17.80;96.80;;;;;;5050172;28;20205;-49
2022/09/15 04:43:40;;;;;;;6.70;1.77;;;17.70;96.90;;;;;;5051875;28;20194;-48
2022/09/15 04:46:06;;;;;;;9.75;2.40;;;17.70;97.00;;;;;;5038848;28;20183;-43
2022/09/15 04:48:32;;;;;;;5.38;2.40;;;17.70;97.10;;;;;;5072683;28;20266;-48
2022/09/15 04:51:03;;;;;;;8.68;1.58;;;17.70;97.10;;;;;;5046171;28;20871;-47
2022/09/15 04:53:29;;;;;;;5.43;1.20;;;17.70;97.20;;;;;;5055672;28;20261;-48
2022/09/15 04:56:25;;;;;;;9.75;1.45;;;17.70;97.20;;;;;;5034603;28;20577;-55
2022/09/15 04:58:56;;;;;;;10.90;2.10;;;17.70;97.20;;;;;;5036557;28;20226;-46
2022/09/15 05:01:24;;;;;;;12.63;1.90;;;17.70;97.30;;;;;;5041599;28;20266;-49
2022/09/15 05:03:51;;;;;;;10.27;1.48;;;17.70;97.20;;;;;;5048917;28;20167;-47
2022/09/15 05:06:19;;;;;;;7.72;1.33;;;17.70;97.30;;;;;;5037852;28;20610;-46
2022/09/15 05:08:55;;;;;;;8.93;1.70;;;17.70;97.30;;;;;;5041677;28;20187;-56
2022/09/15 05:11:21;;;;;;;7.07;1.52;;;17.70;97.40;;;;;;5050285;28;20175;-49
2022/09/15 05:13:48;;;;;;;7.93;1.30;;;17.70;97.50;;;;;;5049095;28;20233;-50
2022/09/15 05:16:18;;;;;;;9.27;1.55;;;17.70;97.50;;;;;;5053628;28;20179;-47
2022/09/15 05:18:46;;;;;;;9.32;1.58;;;17.70;97.50;;;;;;5050929;28;20203;-48
2022/09/15 05:21:15;;;;;;;6.38;1.65;;;17.70;97.50;;;;;;5049411;28;20184;-48
2022/09/15 05:23:40;;;;;;;5.85;1.33;;;17.70;97.50;;;;;;5054995;28;20183;-44
2022/09/15 05:26:10;;;;;;;11.15;1.45;;;17.70;97.60;;;;;;5046555;28;20243;-45
2022/09/15 05:28:36;;;;;;;8.30;1.85;;;17.70;97.60;;;;;;5049653;28;20673;-45
2022/09/15 05:31:17;;;;;;;8.63;1.75;;;17.70;97.60;;;;;;5055307;28;20183;-45
2022/09/15 05:33:44;;;;;;;11.30;1.83;;;17.70;97.70;;;;;;5053049;28;20285;-46
2022/09/15 05:36:10;;;;;;;10.45;1.83;;;17.60;97.70;;;;;;5048601;28;20270;-46
2022/09/15 05:38:36;;;;;;;9.65;1.50;;;17.70;97.70;;;;;;5080004;28;20228;-47
2022/09/15 05:41:16;;;;;;;8.25;1.58;;;17.60;97.60;;;;;;5090648;28;20193;-46
2022/09/15 05:43:43;;;;;;;5.88;1.50;;;17.60;97.60;;;;;;5071281;28;20174;-59
2022/09/15 05:46:10;;;;;;;12.07;2.00;;;17.70;97.40;;;;;;5078064;28;20178;-48
2022/09/15 05:48:36;;;;;;;7.78;1.45;;;17.60;97.20;;;;;;5079337;28;20182;-49
2022/09/15 05:51:02;;;;;;;10.25;1.83;;;17.60;97.00;;;;;;5086248;28;20178;-57
2022/09/15 05:53:29;;;;;;;7.38;1.60;;;17.60;97.30;;;;;;5094275;28;20659;-51
2022/09/15 05:55:57;;;;;;;13.50;1.73;;;17.50;98.20;;;;;;5091628;28;20264;-48
2022/09/15 05:58:24;;;;;;;9.77;1.83;;;17.50;99.10;;;;;;5095492;28;20219;-48
2022/09/15 06:00:50;;;;;;;10.30;1.80;;;17.50;99.50;;;;;;5093032;28;20477;-49
2022/09/15 06:03:16;;;;;;;12.63;2.40;;;17.50;99.90;;;;;;5067796;28;20201;-60
2022/09/15 06:05:42;;;;;;;10.07;1.92;;;17.40;99.90;;;;;;5084967;28;20186;-45
2022/09/15 06:08:08;;;;;;;7.22;1.50;;;17.40;99.90;;;;;;5054011;28;20197;-49
2022/09/15 06:10:34;;;;;;;13.18;2.08;;;17.40;99.90;;;;;;5089123;28;20189;-48
2022/09/15 06:12:59;;;;;;;11.40;2.25;;;17.40;99.90;;;;;;5062486;28;20183;-44
2022/09/15 06:15:25;;;;;;;12.93;2.10;;;17.30;99.90;;;;;;5084003;28;20205;-50
2022/09/15 06:17:51;;;;;;;16.13;2.10;;;17.30;99.90;;;;;;5083417;28;20301;-48
2022/09/15 06:20:18;;;;;;;10.80;2.30;;;17.30;99.90;;;;;;5088273;28;20212;-49
2022/09/15 06:22:47;;;;;;;13.32;2.05;;;17.30;99.90;;;;;;5080013;28;20190;-50
2022/09/15 06:25:13;;;;;;;13.50;2.22;;;17.30;99.90;;;;;;5067842;28;20228;-50
2022/09/15 06:27:40;;;;;;;13.27;2.88;;;17.30;99.90;;;;;;5070313;28;20652;-47
2022/09/15 06:30:07;;;;;;;12.30;1.98;;;17.40;99.90;;;;;;5062497;28;20559;-52
2022/09/15 06:32:34;;;;;;;9.48;1.60;;;17.40;99.90;;;;;;5059914;28;20202;-43
2022/09/15 06:34:59;;;;;;;11.10;1.67;;;17.40;99.90;;;;;;5078714;28;20171;-44
2022/09/15 06:37:25;;;;;;;10.73;1.45;;;17.40;99.90;;;;;;5097736;28;20277;-43
2022/09/15 06:39:51;;;;;;;6.22;1.60;;;17.40;99.90;;;;;;5097672;28;20299;-46
2022/09/15 06:42:17;;;;;;;10.48;1.75;;;17.40;99.90;;;;;;5076831;28;20307;-51
2022/09/15 06:44:42;;;;;;;7.22;1.50;;;17.40;99.90;;;;;;5075664;28;20658;-50
2022/09/15 06:47:09;;;;;;;8.35;1.75;;;17.40;99.90;;;;;;5071569;28;20271;-44
2022/09/15 06:49:35;;;;;;;11.90;2.00;;;17.50;99.90;;;;;;5064825;28;20187;-48
2022/09/15 06:52:01;;;;;;;9.70;1.50;;;17.50;99.90;;;;;;5075328;28;20216;-50
2022/09/15 06:54:27;;;;;;;7.57;1.65;;;17.50;99.90;;;;;;5098007;28;20197;-46
2022/09/15 06:56:53;;;;;;;7.18;1.63;;;17.60;99.80;;;;;;5045576;28;20190;-49
2022/09/15 06:59:18;;;;;;;7.13;1.42;;;17.60;99.60;;;;;;5076289;28;20198;-48
2022/09/15 07:01:44;;;;;;;5.28;1.17;;;17.70;99.30;;;;;;5063847;28;20634;-50
2022/09/15 07:04:10;;;;;;;6.95;1.50;;;17.70;99.10;;;;;;5090211;28;20186;-48
2022/09/15 07:06:38;;;;;;;5.57;1.30;;;17.70;98.80;;;;;;5079163;28;20662;-45
2022/09/15 07:09:05;;;;;;;8.52;1.83;;;17.70;98.50;;;;;;5073892;28;20187;-53
2022/09/15 07:11:31;;;;;;;6.50;1.67;;;17.70;98.40;;;;;;5077481;28;20838;-43
2022/09/15 07:13:58;;;;;;;7.63;1.30;;;17.70;98.50;;;;;;5078987;28;20174;-43
2022/09/15 07:16:26;;;;;;;9.20;1.65;;;17.70;98.80;;;;;;5072841;28;20190;-44
2022/09/15 07:19:00;;;;;;;6.07;1.17;;;17.60;99.40;;;;;;5084280;28;20202;-48
2022/09/15 07:21:27;;;;;;;9.27;1.60;;;17.60;99.90;;;;;;5090340;28;20178;-57
2022/09/15 07:23:55;;;;;;;10.13;1.58;;;17.50;99.90;;;;;;5055830;28;20530;-46
2022/09/15 07:26:26;;;;;;;9.70;2.38;;;17.50;99.90;;;;;;5093677;28;20715;-49
2022/09/15 07:29:00;;;;;;;7.40;1.50;;;17.40;99.90;;;;;;5100210;28;20395;-47
2022/09/15 07:31:28;;;;;;;6.30;1.70;;;17.40;99.90;;;;;;5082720;28;20181;-46
2022/09/15 07:33:54;;;;;;;8.52;1.80;;;17.30;99.90;;;;;;5087531;28;20653;-49
2022/09/15 07:36:27;;;;;;;6.57;1.67;;;17.30;99.90;;;;;;5089340;28;20185;-45
2022/09/15 07:38:53;;;;;;;12.15;1.42;;;17.20;99.90;;;;;;5107276;28;20988;-45
2022/09/15 07:41:29;;;;;;;11.68;2.03;;;17.20;99.90;;;;;;5091951;28;20225;-46
2022/09/15 07:43:59;;;;;;;6.00;1.50;;;17.10;99.90;;;;;;5103793;28;20172;-46
2022/09/15 07:46:28;;;;;;;7.75;1.83;;;17.00;99.90;;;;;;5059014;28;20178;-45
2022/09/15 07:48:57;;;;;;;13.85;2.35;;;16.80;99.90;;;;;;5047952;28;20598;-46
2022/09/15 07:51:24;;;;;;;8.77;1.90;;;16.70;99.90;;;;;;5097321;28;20197;-52
2022/09/15 07:53:51;;;;;;;6.97;1.60;;;16.70;99.90;;;;;;5094493;28;20189;-47
2022/09/15 07:56:17;;;;;;;14.23;1.85;;;16.70;99.90;;;;;;5074672;28;20189;-48
2022/09/15 07:58:44;;;;;;;11.00;2.65;;;16.70;99.90;;;;;;5082339;28;20264;-50
2022/09/15 08:01:10;;;;;;;9.95;1.83;;;16.70;99.90;;;;;;5090232;28;20273;-45
2022/09/15 08:03:45;;;;;;;11.13;1.88;;;16.80;99.90;;;;;;5081679;28;20243;-45
2022/09/15 08:06:11;;;;;;;10.85;1.70;;;16.90;99.90;;;;;;5074554;28;20178;-49
2022/09/15 08:08:38;;;;;;;6.20;1.52;;;16.90;99.90;;;;;;5090237;28;20203;-46
2022/09/15 08:11:08;;;;;;;10.00;1.85;;;17.10;99.90;;;;;;5082072;28;20186;-46
2022/09/15 08:13:34;;;;;;;12.90;1.85;;;17.20;99.90;;;;;;5093719;28;20191;-44
2022/09/15 08:16:11;;;;;;;10.00;1.85;;;17.30;99.90;;;;;;5095737;28;20212;-45
2022/09/15 08:18:43;;;;;;;10.05;1.60;;;17.30;99.90;;;;;;5088996;28;20214;-50
2022/09/15 08:21:12;;;;;;;7.60;1.70;;;17.40;99.90;;;;;;5089702;28;20210;-48
2022/09/15 08:23:38;;;;;;;5.88;1.23;;;17.40;99.90;;;;;;5098670;28;20177;-44
2022/09/15 08:26:06;;;;;;;7.90;1.40;;;17.50;99.90;;;;;;5071810;28;20185;-49
2022/09/15 08:28:32;;;;;;;8.20;1.50;;;17.50;99.90;;;;;;5099517;28;20221;-46
2022/09/15 08:31:04;;;;;;;10.70;1.50;;;17.50;99.90;;;;;;5092503;28;20196;-49
2022/09/15 08:33:30;;;;;;;7.25;1.20;;;17.60;99.90;;;;;;5070666;28;20182;-44
2022/09/15 08:36:04;;;;;;;6.57;1.63;;;17.60;99.90;;;;;;5099130;28;20178;-49
2022/09/15 08:38:30;;;;;;;6.05;1.58;;;17.70;99.90;;;;;;5105867;28;20585;-48
2022/09/15 08:41:02;;;;;;;7.28;1.60;;;17.70;99.90;;;;;;5088347;28;20186;-45
2022/09/15 08:43:35;;;;;;;9.77;1.48;;;17.70;99.90;;;;;;5092580;28;20169;-44
2022/09/15 08:46:07;;;;;;;6.20;1.05;;;17.80;99.70;;;;;;5095183;28;20174;-49
2022/09/15 08:48:43;;;;;;;5.85;1.60;;;17.80;99.10;;;;;;5095387;28;20165;-44
2022/09/15 08:51:17;;;;;;;9.73;1.45;;;17.80;98.10;;;;;;5091895;28;20173;-54
2022/09/15 08:53:50;;;;;;;10.43;1.52;;;17.90;97.80;;;;;;5111530;28;20199;-48
2022/09/15 08:56:19;;;;;;;10.65;1.70;;;17.90;97.20;;;;;;5092112;28;20186;-45
2022/09/15 08:58:45;;;;;;;6.75;1.10;;;18.00;96.90;;;;;;5091772;28;20178;-44
2022/09/15 09:01:57;;;;;;;8.63;1.55;;;18.00;96.90;;;;;;5085829;28;20190;-44
2022/09/15 09:04:42;;;;;;;7.18;1.70;;;18.10;96.30;;;;;;5060770;28;20720;-45
2022/09/15 09:07:34;;;;;;;7.03;1.40;;;18.20;96.60;;;;;;5092955;28;20167;-44
2022/09/15 09:10:21;;;;;;;8.35;1.42;;;18.30;95.50;;;;;;5089528;28;20174;-46
2022/09/15 09:12:47;;;;;;;6.70;1.70;;;18.40;95.40;;;;;;5085483;28;20177;-50
2022/09/15 09:15:43;;;;;;;8.65;1.48;;;18.40;94.90;;;;;;5091022;28;20207;-47
2022/09/15 09:18:36;;;;;;;6.97;1.45;;;18.50;94.30;;;;;;5092277;28;20170;-49
2022/09/15 09:21:11;;;;;;;8.23;1.40;;;18.70;94.00;;;;;;5090458;28;20276;-47
2022/09/15 09:23:47;;;;;;;6.63;1.40;;;18.70;93.30;;;;;;5089352;28;20231;-52
2022/09/15 09:26:14;;;;;;;9.65;1.77;;;18.70;93.40;;;;;;5091151;28;20178;-54
2022/09/15 09:28:51;;;;;;;7.30;1.48;;;18.80;92.80;;;;;;5075939;28;20182;-44
2022/09/15 09:31:23;;;;;;;7.10;1.20;;;18.80;92.40;;;;;;5092891;28;20186;-44
2022/09/15 09:34:18;;;;;;;6.38;1.48;;;18.80;92.20;;;;;;5091748;28;20178;-45
2022/09/15 09:36:44;;;;;;;11.65;1.42;;;18.90;91.60;;;;;;5081058;28;20232;-45
2022/09/15 09:39:13;;;;;;;9.57;1.40;;;18.90;91.50;;;;;;5075762;28;20748;-46
2022/09/15 09:41:41;;;;;;;9.70;1.60;;;19.00;91.40;;;;;;5092502;28;20205;-49
2022/09/15 09:44:12;;;;;;;8.90;1.40;;;19.00;91.20;;;;;;5077200;28;20269;-54
2022/09/15 09:46:39;;;;;;;5.32;1.25;;;19.10;91.10;;;;;;5076388;28;20181;-43
2022/09/15 09:49:24;;;;;;;9.48;1.27;;;19.10;91.00;;;;;;5085255;28;20174;-55
2022/09/15 09:51:57;;;;;;;8.23;1.40;;;19.20;90.20;;;;;;5089255;28;20183;-44
2022/09/15 09:54:27;;;;;;;11.10;1.70;;;19.20;90.70;;;;;;5093880;28;20181;-45
2022/09/15 09:56:54;;;;;;;9.50;1.48;;;19.30;90.90;;;;;;5061387;28;20227;-44
2022/09/15 09:59:39;;;;;;;13.93;1.63;;;19.30;91.20;;;;;;5090633;28;20301;-46
2022/09/15 10:02:10;;;;;;;7.60;1.50;;;19.30;91.10;;;;;;5076088;28;20641;-44
2022/09/15 10:04:37;;;;;;;6.18;1.30;;;19.40;91.30;;;;;;5056639;28;20178;-56
2022/09/15 10:07:03;;;;;;;6.45;1.50;;;19.40;91.20;;;;;;5095278;28;20170;-46
2022/09/15 10:09:30;;;;;;;6.90;1.15;;;19.50;90.70;;;;;;5093668;28;20183;-48
2022/09/15 10:11:59;;;;;;;10.55;1.55;;;19.70;90.00;;;;;;5092054;28;20176;-49
2022/09/15 10:14:37;;;;;;;9.13;1.42;;;19.80;88.60;;;;;;5108535;28;20193;-46
2022/09/15 10:17:11;;;;;;;5.60;1.10;;;19.80;87.30;;;;;;5081881;28;20245;-46
2022/09/15 10:19:54;;;;;;;7.30;1.45;;;20.00;86.80;;;;;;5104083;28;20197;-51
2022/09/15 10:22:37;;;;;;;5.13;1.10;;;20.00;83.50;;;;;;5088254;28;20265;-47
2022/09/15 10:25:22;;;;;;;5.70;1.02;;;20.00;80.90;;;;;;5089118;28;20182;-50
2022/09/15 10:28:07;;;;;;;5.75;1.00;;;20.00;79.80;;;;;;5093421;28;20202;-51
2022/09/15 10:30:33;;;;;;;5.60;0.98;;;20.10;79.60;;;;;;5094667;28;20570;-50
2022/09/15 10:33:21;;;;;;;4.00;1.35;;;20.10;78.10;;;;;;5094382;28;20178;-50
2022/09/15 10:35:47;;;;;;;4.35;0.90;;;20.10;73.70;;;;;;5075170;28;20626;-51
2022/09/15 10:38:23;;;;;;;3.15;1.10;;;20.20;74.90;;;;;;5089606;28;20248;-48
2022/09/15 10:41:16;;;;;;;3.50;1.00;;;20.20;73.00;;;;;;5093216;28;20201;-48
2022/09/15 10:44:13;;;;;;;5.70;1.30;;;20.20;74.60;;;;;;5115089;28;20181;-47
2022/09/15 10:46:54;;;;;;;7.18;1.20;;;20.30;75.80;;;;;;5074306;28;20179;-49
2022/09/15 10:49:43;;;;;;;4.35;1.05;;;20.40;76.60;;;;;;5073782;28;20209;-50
2022/09/15 10:52:46;;;;;;;7.22;1.30;;;20.50;77.30;;;;;;5088673;28;20256;-50
2022/09/15 10:55:38;;;;;;;7.32;1.20;;;20.70;75.10;;;;;;5082450;28;20189;-51
2022/09/15 10:58:34;;;;;;;6.68;1.10;;;20.70;75.70;;;;;;5081000;28;20175;-58
2022/09/15 11:01:27;;;;;;;7.47;1.00;;;20.70;74.80;;;;;;5088177;28;20189;-49
2022/09/15 11:04:35;;;;;;;3.25;1.00;;;20.80;73.90;;;;;;5072346;28;20230;-51
2022/09/15 11:07:14;;;;;;;3.90;0.90;;;20.80;72.70;;;;;;5082178;28;20191;-43
2022/09/15 11:09:49;;;;;;;6.22;1.33;;;20.80;73.70;;;;;;5093476;28;20182;-45
2022/09/15 11:12:48;;;;;;;5.35;1.10;;;20.80;73.10;;;;;;5088723;28;20174;-46
2022/09/15 11:15:45;;;;;;;10.80;1.10;;;20.80;71.70;;;;;;5092408;28;20177;-46
2022/09/15 11:18:18;;;;;;;7.00;1.02;;;20.90;71.40;;;;;;5094180;28;20249;-44
2022/09/15 11:21:18;;;;;;;5.68;1.30;;;20.90;73.10;;;;;;5080046;28;20295;-45
2022/09/15 11:24:48;;;;;;;7.40;1.40;;;21.00;70.70;;;;;;5081998;28;20228;-53
2022/09/15 11:27:28;;;;;;;6.25;0.90;;;21.10;72.10;;;;;;4990452;28;20189;-49
2022/09/15 11:30:00;;;;;;;4.03;0.98;;;21.20;72.50;;;;;;4990946;28;20185;-56
2022/09/15 11:32:47;;;;;;;7.95;1.40;;;21.20;71.20;;;;;;5040514;28;20194;-48
2022/09/15 11:35:37;;;;;;;5.50;1.17;;;21.10;74.00;;;;;;5082853;28;20594;-49
2022/09/15 11:38:28;;;;;;;9.65;1.70;;;20.90;80.80;;;;;;5081100;28;20221;-46
2022/09/15 11:41:09;;;;;;;9.05;1.88;;;20.80;85.30;;;;;;5072014;28;20205;-47
2022/09/15 11:43:57;;;;;;;9.93;1.75;;;20.60;86.80;;;;;;5093689;28;20163;-48
2022/09/15 11:46:50;;;;;;;7.53;2.00;;;20.50;88.10;;;;;;5072594;28;20268;-51
2022/09/15 11:49:49;;;;;;;7.18;1.40;;;20.50;89.80;;;;;;5051502;28;20194;-49
2022/09/15 11:52:31;;;;;;;10.82;1.42;;;20.40;89.40;;;;;;5094059;28;20602;-47
2022/09/15 11:55:18;;;;;;;6.45;1.35;;;20.40;89.70;;;;;;5084111;28;20257;-50
2022/09/15 11:57:50;;;;;;;6.95;1.00;;;20.50;89.00;;;;;;5089577;28;20637;-59
2022/09/15 12:00:15;;;;;;;7.32;1.40;;;20.60;88.40;;;;;;5080979;28;20665;-53
2022/09/15 12:03:12;;;;;;;7.68;1.50;;;20.60;87.70;;;;;;5074928;28;20208;-51
2022/09/15 12:05:43;;;;;;;7.60;1.23;;;20.50;88.10;;;;;;5079224;28;20179;-48
2022/09/15 12:08:28;;;;;;;7.88;1.52;;;20.50;88.70;;;;;;5056123;28;20202;-57
2022/09/15 12:10:58;;;;;;;10.45;1.48;;;20.50;89.20;;;;;;5093164;28;20262;-47
2022/09/15 12:13:25;;;;;;;5.90;1.20;;;20.50;89.00;;;;;;5113182;28;20180;-47
2022/09/15 12:15:51;;;;;;;5.82;1.48;;;20.50;89.60;;;;;;5087941;28;20180;-51
2022/09/15 12:18:58;;;;;;;7.13;1.50;;;20.60;90.20;;;;;;5090095;28;20228;-49
2022/09/15 12:21:56;;;;;;;6.15;1.10;;;20.90;89.40;;;;;;5022558;28;20201;-52
2022/09/15 12:24:39;;;;;;;7.20;1.17;;;21.10;87.80;;;;;;5074057;28;20181;-49
2022/09/15 12:27:14;;;;;;;6.78;1.33;;;21.10;87.20;;;;;;5091079;28;20174;-52
2022/09/15 12:29:48;;;;;;;6.63;1.48;;;21.20;87.50;;;;;;5081808;28;20177;-46
2022/09/15 12:32:28;;;;;;;8.25;1.45;;;21.20;87.20;;;;;;5071174;28;20181;-49
2022/09/15 12:35:15;;;;;;;7.10;1.42;;;21.20;86.60;;;;;;5070424;28;20216;-48
2022/09/15 12:37:46;;;;;;;5.50;1.20;;;21.20;86.40;;;;;;5093228;28;20194;-52
2022/09/15 12:40:27;;;;;;;8.73;1.33;;;21.20;83.90;;;;;;5083056;28;20209;-50
2022/09/15 12:42:53;;;;;;;5.53;1.30;;;21.30;82.50;;;;;;5091658;28;20265;-49
2022/09/15 12:45:29;;;;;;;4.82;1.10;;;21.40;79.90;;;;;;5071452;28;20693;-48
2022/09/15 12:48:11;;;;;;;5.60;1.02;;;21.40;78.50;;;;;;5070273;28;20581;-52
2022/09/15 12:50:40;;;;;;;10.95;1.33;;;21.50;75.70;;;;;;5082920;28;20182;-47
2022/09/15 12:53:29;;;;;;;4.00;0.90;;;21.50;75.50;;;;;;5093174;28;20201;-49
2022/09/15 12:56:02;;;;;;;6.45;1.33;;;21.50;75.40;;;;;;5089111;28;20205;-49
2022/09/15 12:58:45;;;;;;;3.95;1.27;;;21.70;75.60;;;;;;5092739;28;20162;-48
2022/09/15 13:01:17;;;;;;;8.00;1.40;;;21.80;74.60;;;;;;5092489;28;20192;-49
2022/09/15 13:03:44;;;;;;;9.18;1.35;;;22.00;74.60;;;;;;5078073;28;20174;-51
2022/09/15 13:06:09;;;;;;;5.30;1.17;;;22.00;75.60;;;;;;5090840;28;20181;-47
2022/09/15 13:08:35;;;;;;;8.50;1.45;;;22.00;76.50;;;;;;5103478;28;20169;-50
2022/09/15 13:11:18;;;;;;;3.97;0.90;;;22.10;76.70;;;;;;5082257;28;20476;-51
2022/09/15 13:14:13;;;;;;;4.35;1.10;;;22.30;72.30;;;;;;5096777;28;20300;-41
2022/09/15 13:16:39;;;;;;;2.58;1.00;;;22.50;63.10;;;;;;5091259;28;20174;-48